KFEP/FEP METAR and TAF weather

Enter ICAO airport designator
Station Type Date Time Source
KFEP METAR 2021/04/13 06:55 UTC NOAA

KFEP 130655Z AUTO 26007KT 10SM CLR 05/00 A3001 RMK AO2 T00530000


Station Type Date Time Source
KFEP Decoded METAR 2021/04/13 06:55 UTC NOAA

Freeport, Albertus Airport, IL, United States (KFEP) 42-14-47N 089-34-56W
Apr 13, 2021 - 02:55 AM EDT / 2021.04.13 0655 UTC
Wind: from the W (260 degrees) at 8 MPH (7 KT):0
Visibility: 10 mile(s):0
Sky conditions: clear
Temperature: 41.5 F (5.3 C)
Dew Point: 32.0 F (0.0 C)
Relative Humidity: 68%
Pressure (altimeter): 30.01 in. Hg (1016 hPa)
ob: KFEP 130655Z AUTO 26007KT 10SM CLR 05/00 A3001 RMK AO2 T00530000
cycle: 7

Station Type Date Time Source
KFEP TAF UTC NOAA

Error!

Example: see airport list